sensor_id;sensor_type;location;lat;lon;timestamp;P1;durP1;ratioP1;P2;durP2;ratioP2
53903;SDS011;39812;52.430;16.936;2023-05-07T00:00:21;12.73;;;6.00;;
53903;SDS011;39812;52.430;16.936;2023-05-07T00:02:46;12.00;;;6.18;;
53903;SDS011;39812;52.430;16.936;2023-05-07T00:05:12;9.68;;;6.18;;
53903;SDS011;39812;52.430;16.936;2023-05-07T00:07:39;9.80;;;6.25;;
53903;SDS011;39812;52.430;16.936;2023-05-07T00:10:05;10.45;;;5.68;;
53903;SDS011;39812;52.430;16.936;2023-05-07T00:12:32;11.07;;;5.78;;
53903;SDS011;39812;52.430;16.936;2023-05-07T00:15:03;9.45;;;5.63;;
53903;SDS011;39812;52.430;16.936;2023-05-07T00:17:30;8.77;;;5.93;;
53903;SDS011;39812;52.430;16.936;2023-05-07T00:19:56;8.52;;;5.90;;
53903;SDS011;39812;52.430;16.936;2023-05-07T00:22:21;10.75;;;6.28;;
53903;SDS011;39812;52.430;16.936;2023-05-07T00:24:47;9.73;;;6.18;;
53903;SDS011;39812;52.430;16.936;2023-05-07T00:27:13;10.55;;;6.13;;
53903;SDS011;39812;52.430;16.936;2023-05-07T00:29:38;10.23;;;6.20;;
53903;SDS011;39812;52.430;16.936;2023-05-07T00:32:04;13.32;;;6.57;;
53903;SDS011;39812;52.430;16.936;2023-05-07T00:34:30;11.07;;;6.18;;
53903;SDS011;39812;52.430;16.936;2023-05-07T00:36:55;9.30;;;6.50;;
53903;SDS011;39812;52.430;16.936;2023-05-07T00:39:21;9.68;;;6.57;;
53903;SDS011;39812;52.430;16.936;2023-05-07T00:41:47;11.98;;;6.45;;
53903;SDS011;39812;52.430;16.936;2023-05-07T00:44:12;8.25;;;6.10;;
53903;SDS011;39812;52.430;16.936;2023-05-07T00:46:39;11.68;;;6.13;;
53903;SDS011;39812;52.430;16.936;2023-05-07T00:49:05;11.57;;;6.60;;
53903;SDS011;39812;52.430;16.936;2023-05-07T00:51:31;11.75;;;6.60;;
53903;SDS011;39812;52.430;16.936;2023-05-07T00:53:57;11.05;;;6.80;;
53903;SDS011;39812;52.430;16.936;2023-05-07T00:56:25;11.63;;;6.88;;
53903;SDS011;39812;52.430;16.936;2023-05-07T00:58:51;10.38;;;6.85;;
53903;SDS011;39812;52.430;16.936;2023-05-07T01:01:17;11.10;;;6.82;;
53903;SDS011;39812;52.430;16.936;2023-05-07T01:03:43;9.32;;;6.53;;
53903;SDS011;39812;52.430;16.936;2023-05-07T01:06:09;11.93;;;7.00;;
53903;SDS011;39812;52.430;16.936;2023-05-07T01:08:37;10.50;;;7.00;;
53903;SDS011;39812;52.430;16.936;2023-05-07T01:11:04;10.35;;;6.45;;
53903;SDS011;39812;52.430;16.936;2023-05-07T01:13:31;12.40;;;6.68;;
53903;SDS011;39812;52.430;16.936;2023-05-07T01:15:58;12.43;;;6.90;;
53903;SDS011;39812;52.430;16.936;2023-05-07T01:18:23;9.48;;;6.13;;
53903;SDS011;39812;52.430;16.936;2023-05-07T01:20:51;10.43;;;6.22;;
53903;SDS011;39812;52.430;16.936;2023-05-07T01:23:17;11.23;;;6.47;;
53903;SDS011;39812;52.430;16.936;2023-05-07T01:25:43;12.23;;;6.32;;
53903;SDS011;39812;52.430;16.936;2023-05-07T01:28:15;13.07;;;6.97;;
53903;SDS011;39812;52.430;16.936;2023-05-07T01:30:41;9.05;;;6.18;;
53903;SDS011;39812;52.430;16.936;2023-05-07T01:33:10;10.30;;;6.50;;
53903;SDS011;39812;52.430;16.936;2023-05-07T01:35:39;10.77;;;6.20;;
53903;SDS011;39812;52.430;16.936;2023-05-07T01:38:07;11.07;;;6.18;;
53903;SDS011;39812;52.430;16.936;2023-05-07T01:40:33;10.60;;;6.60;;
53903;SDS011;39812;52.430;16.936;2023-05-07T01:42:59;10.32;;;6.05;;
53903;SDS011;39812;52.430;16.936;2023-05-07T01:45:26;10.07;;;6.43;;
53903;SDS011;39812;52.430;16.936;2023-05-07T01:47:53;9.52;;;6.07;;
53903;SDS011;39812;52.430;16.936;2023-05-07T01:50:19;14.57;;;6.35;;
53903;SDS011;39812;52.430;16.936;2023-05-07T01:52:45;12.35;;;6.38;;
53903;SDS011;39812;52.430;16.936;2023-05-07T01:55:11;11.15;;;6.13;;
53903;SDS011;39812;52.430;16.936;2023-05-07T01:57:37;12.75;;;6.72;;
53903;SDS011;39812;52.430;16.936;2023-05-07T02:00:03;12.35;;;6.80;;
53903;SDS011;39812;52.430;16.936;2023-05-07T02:02:30;12.07;;;6.70;;
53903;SDS011;39812;52.430;16.936;2023-05-07T02:04:56;11.75;;;6.63;;
53903;SDS011;39812;52.430;16.936;2023-05-07T02:07:22;11.10;;;6.97;;
53903;SDS011;39812;52.430;16.936;2023-05-07T02:09:47;12.15;;;6.80;;
53903;SDS011;39812;52.430;16.936;2023-05-07T02:12:13;12.65;;;6.68;;
53903;SDS011;39812;52.430;16.936;2023-05-07T02:14:38;9.43;;;6.45;;
53903;SDS011;39812;52.430;16.936;2023-05-07T02:17:04;13.05;;;6.85;;
53903;SDS011;39812;52.430;16.936;2023-05-07T02:19:29;12.00;;;6.82;;
53903;SDS011;39812;52.430;16.936;2023-05-07T02:21:55;12.80;;;6.80;;
53903;SDS011;39812;52.430;16.936;2023-05-07T02:24:21;11.45;;;7.18;;
53903;SDS011;39812;52.430;16.936;2023-05-07T02:26:46;15.32;;;7.28;;
53903;SDS011;39812;52.430;16.936;2023-05-07T02:29:12;11.57;;;7.03;;
53903;SDS011;39812;52.430;16.936;2023-05-07T02:31:37;14.80;;;7.03;;
53903;SDS011;39812;52.430;16.936;2023-05-07T02:34:03;11.27;;;6.78;;
53903;SDS011;39812;52.430;16.936;2023-05-07T02:36:29;11.93;;;7.75;;
53903;SDS011;39812;52.430;16.936;2023-05-07T02:38:54;11.35;;;6.85;;
53903;SDS011;39812;52.430;16.936;2023-05-07T02:41:20;11.02;;;6.88;;
53903;SDS011;39812;52.430;16.936;2023-05-07T02:43:46;10.73;;;7.28;;
53903;SDS011;39812;52.430;16.936;2023-05-07T02:46:11;13.50;;;6.35;;
53903;SDS011;39812;52.430;16.936;2023-05-07T02:48:37;11.25;;;6.43;;
53903;SDS011;39812;52.430;16.936;2023-05-07T02:51:03;15.15;;;7.15;;
53903;SDS011;39812;52.430;16.936;2023-05-07T02:53:29;11.75;;;7.07;;
53903;SDS011;39812;52.430;16.936;2023-05-07T02:55:55;13.05;;;7.65;;
53903;SDS011;39812;52.430;16.936;2023-05-07T02:58:22;12.95;;;7.78;;
53903;SDS011;39812;52.430;16.936;2023-05-07T03:00:48;10.15;;;6.80;;
53903;SDS011;39812;52.430;16.936;2023-05-07T03:03:14;10.07;;;6.68;;
53903;SDS011;39812;52.430;16.936;2023-05-07T03:05:40;10.63;;;6.80;;
53903;SDS011;39812;52.430;16.936;2023-05-07T03:08:06;14.10;;;6.97;;
53903;SDS011;39812;52.430;16.936;2023-05-07T03:10:33;13.10;;;7.53;;
53903;SDS011;39812;52.430;16.936;2023-05-07T03:12:58;11.63;;;6.45;;
53903;SDS011;39812;52.430;16.936;2023-05-07T03:15:24;9.98;;;6.70;;
53903;SDS011;39812;52.430;16.936;2023-05-07T03:17:50;11.25;;;7.53;;
53903;SDS011;39812;52.430;16.936;2023-05-07T03:20:16;11.02;;;6.45;;
53903;SDS011;39812;52.430;16.936;2023-05-07T03:22:41;13.02;;;6.03;;
53903;SDS011;39812;52.430;16.936;2023-05-07T03:25:08;11.68;;;7.75;;
53903;SDS011;39812;52.430;16.936;2023-05-07T03:27:35;9.98;;;6.30;;
53903;SDS011;39812;52.430;16.936;2023-05-07T03:30:00;12.02;;;6.18;;
53903;SDS011;39812;52.430;16.936;2023-05-07T03:32:26;12.20;;;6.85;;
53903;SDS011;39812;52.430;16.936;2023-05-07T03:34:52;11.23;;;6.95;;
53903;SDS011;39812;52.430;16.936;2023-05-07T03:37:17;9.95;;;6.32;;
53903;SDS011;39812;52.430;16.936;2023-05-07T03:39:43;13.65;;;6.75;;
53903;SDS011;39812;52.430;16.936;2023-05-07T03:42:09;12.02;;;6.20;;
53903;SDS011;39812;52.430;16.936;2023-05-07T03:44:35;10.38;;;6.10;;
53903;SDS011;39812;52.430;16.936;2023-05-07T03:47:01;10.05;;;6.30;;
53903;SDS011;39812;52.430;16.936;2023-05-07T03:49:27;10.43;;;6.05;;
53903;SDS011;39812;52.430;16.936;2023-05-07T03:51:53;13.82;;;6.47;;
53903;SDS011;39812;52.430;16.936;2023-05-07T03:54:18;10.55;;;5.97;;
53903;SDS011;39812;52.430;16.936;2023-05-07T03:56:44;10.82;;;6.00;;
53903;SDS011;39812;52.430;16.936;2023-05-07T03:59:10;11.98;;;6.22;;
53903;SDS011;39812;52.430;16.936;2023-05-07T04:01:35;11.23;;;6.22;;
53903;SDS011;39812;52.430;16.936;2023-05-07T04:04:01;9.77;;;5.60;;
53903;SDS011;39812;52.430;16.936;2023-05-07T04:06:28;12.02;;;6.38;;
53903;SDS011;39812;52.430;16.936;2023-05-07T04:08:53;10.00;;;5.60;;
53903;SDS011;39812;52.430;16.936;2023-05-07T04:11:19;12.88;;;5.32;;
53903;SDS011;39812;52.430;16.936;2023-05-07T04:13:45;11.10;;;5.95;;
53903;SDS011;39812;52.430;16.936;2023-05-07T04:16:11;8.20;;;5.78;;
53903;SDS011;39812;52.430;16.936;2023-05-07T04:18:37;10.38;;;5.93;;
53903;SDS011;39812;52.430;16.936;2023-05-07T04:21:02;11.20;;;6.43;;
53903;SDS011;39812;52.430;16.936;2023-05-07T04:23:28;10.35;;;6.18;;
53903;SDS011;39812;52.430;16.936;2023-05-07T04:25:53;11.30;;;6.80;;
53903;SDS011;39812;52.430;16.936;2023-05-07T04:28:20;11.88;;;6.38;;
53903;SDS011;39812;52.430;16.936;2023-05-07T04:30:45;10.25;;;6.15;;
53903;SDS011;39812;52.430;16.936;2023-05-07T04:33:11;24.58;;;8.10;;
53903;SDS011;39812;52.430;16.936;2023-05-07T04:35:38;11.93;;;6.75;;
53903;SDS011;39812;52.430;16.936;2023-05-07T04:38:04;11.35;;;6.40;;
53903;SDS011;39812;52.430;16.936;2023-05-07T04:40:29;14.68;;;6.68;;
53903;SDS011;39812;52.430;16.936;2023-05-07T04:42:55;13.65;;;6.45;;
53903;SDS011;39812;52.430;16.936;2023-05-07T04:45:21;13.20;;;6.75;;
53903;SDS011;39812;52.430;16.936;2023-05-07T04:47:46;12.20;;;7.10;;
53903;SDS011;39812;52.430;16.936;2023-05-07T04:50:12;11.13;;;7.30;;
53903;SDS011;39812;52.430;16.936;2023-05-07T04:52:38;12.23;;;7.68;;
53903;SDS011;39812;52.430;16.936;2023-05-07T04:55:03;12.52;;;6.72;;
53903;SDS011;39812;52.430;16.936;2023-05-07T04:57:29;12.43;;;6.90;;
53903;SDS011;39812;52.430;16.936;2023-05-07T04:59:55;11.95;;;7.30;;
53903;SDS011;39812;52.430;16.936;2023-05-07T05:02:21;10.30;;;6.28;;
53903;SDS011;39812;52.430;16.936;2023-05-07T05:04:46;9.23;;;5.28;;
53903;SDS011;39812;52.430;16.936;2023-05-07T05:07:12;10.05;;;5.53;;
53903;SDS011;39812;52.430;16.936;2023-05-07T05:09:38;11.10;;;5.05;;
53903;SDS011;39812;52.430;16.936;2023-05-07T05:12:03;8.98;;;5.85;;
53903;SDS011;39812;52.430;16.936;2023-05-07T05:14:32;10.48;;;5.15;;
53903;SDS011;39812;52.430;16.936;2023-05-07T05:16:57;9.98;;;4.50;;
53903;SDS011;39812;52.430;16.936;2023-05-07T05:19:23;8.63;;;5.00;;
53903;SDS011;39812;52.430;16.936;2023-05-07T05:21:48;8.70;;;5.18;;
53903;SDS011;39812;52.430;16.936;2023-05-07T05:24:14;6.65;;;5.07;;
53903;SDS011;39812;52.430;16.936;2023-05-07T05:26:41;9.48;;;4.82;;
53903;SDS011;39812;52.430;16.936;2023-05-07T05:29:07;8.48;;;5.45;;
53903;SDS011;39812;52.430;16.936;2023-05-07T05:31:33;8.35;;;5.28;;
53903;SDS011;39812;52.430;16.936;2023-05-07T05:33:58;7.90;;;5.13;;
53903;SDS011;39812;52.430;16.936;2023-05-07T05:36:24;9.82;;;5.63;;
53903;SDS011;39812;52.430;16.936;2023-05-07T05:38:50;6.35;;;4.32;;
53903;SDS011;39812;52.430;16.936;2023-05-07T05:41:16;8.70;;;4.78;;
53903;SDS011;39812;52.430;16.936;2023-05-07T05:43:42;7.30;;;3.72;;
53903;SDS011;39812;52.430;16.936;2023-05-07T05:46:07;7.07;;;4.35;;
53903;SDS011;39812;52.430;16.936;2023-05-07T05:48:35;8.07;;;4.85;;
53903;SDS011;39812;52.430;16.936;2023-05-07T05:51:01;6.53;;;4.20;;
53903;SDS011;39812;52.430;16.936;2023-05-07T05:53:27;6.78;;;4.30;;
53903;SDS011;39812;52.430;16.936;2023-05-07T05:55:52;7.63;;;4.18;;
53903;SDS011;39812;52.430;16.936;2023-05-07T05:58:18;8.20;;;4.30;;
53903;SDS011;39812;52.430;16.936;2023-05-07T06:00:44;5.63;;;3.67;;
53903;SDS011;39812;52.430;16.936;2023-05-07T06:03:10;5.95;;;3.50;;
53903;SDS011;39812;52.430;16.936;2023-05-07T06:05:36;5.97;;;3.03;;
53903;SDS011;39812;52.430;16.936;2023-05-07T06:08:02;4.43;;;3.13;;
53903;SDS011;39812;52.430;16.936;2023-05-07T06:10:27;6.80;;;3.35;;
53903;SDS011;39812;52.430;16.936;2023-05-07T06:12:54;7.30;;;3.25;;
53903;SDS011;39812;52.430;16.936;2023-05-07T06:15:20;5.28;;;2.65;;
53903;SDS011;39812;52.430;16.936;2023-05-07T06:17:46;4.53;;;2.80;;
53903;SDS011;39812;52.430;16.936;2023-05-07T06:20:12;4.07;;;2.58;;
53903;SDS011;39812;52.430;16.936;2023-05-07T06:22:37;3.45;;;2.30;;
53903;SDS011;39812;52.430;16.936;2023-05-07T06:25:03;3.80;;;2.60;;
53903;SDS011;39812;52.430;16.936;2023-05-07T06:27:29;4.00;;;2.30;;
53903;SDS011;39812;52.430;16.936;2023-05-07T06:29:54;4.70;;;2.58;;
53903;SDS011;39812;52.430;16.936;2023-05-07T06:32:20;3.30;;;2.40;;
53903;SDS011;39812;52.430;16.936;2023-05-07T06:34:46;3.45;;;2.40;;
53903;SDS011;39812;52.430;16.936;2023-05-07T06:37:11;4.78;;;2.70;;
53903;SDS011;39812;52.430;16.936;2023-05-07T06:39:37;5.32;;;2.80;;
53903;SDS011;39812;52.430;16.936;2023-05-07T06:42:02;3.92;;;2.05;;
53903;SDS011;39812;52.430;16.936;2023-05-07T06:44:29;4.32;;;2.25;;
53903;SDS011;39812;52.430;16.936;2023-05-07T06:46:55;7.53;;;2.60;;
53903;SDS011;39812;52.430;16.936;2023-05-07T06:49:21;3.42;;;2.00;;
53903;SDS011;39812;52.430;16.936;2023-05-07T06:51:47;3.03;;;2.00;;
53903;SDS011;39812;52.430;16.936;2023-05-07T06:54:12;2.95;;;1.70;;
53903;SDS011;39812;52.430;16.936;2023-05-07T06:56:38;3.80;;;1.65;;
53903;SDS011;39812;52.430;16.936;2023-05-07T06:59:04;1.88;;;1.33;;
53903;SDS011;39812;52.430;16.936;2023-05-07T07:01:29;4.07;;;2.00;;
53903;SDS011;39812;52.430;16.936;2023-05-07T07:03:55;2.65;;;1.90;;
53903;SDS011;39812;52.430;16.936;2023-05-07T07:06:21;2.33;;;1.50;;
53903;SDS011;39812;52.430;16.936;2023-05-07T07:08:46;2.60;;;1.80;;
53903;SDS011;39812;52.430;16.936;2023-05-07T07:11:12;4.28;;;2.05;;
53903;SDS011;39812;52.430;16.936;2023-05-07T07:13:38;1.77;;;1.40;;
53903;SDS011;39812;52.430;16.936;2023-05-07T07:16:05;2.70;;;1.65;;
53903;SDS011;39812;52.430;16.936;2023-05-07T07:18:30;2.97;;;1.40;;
53903;SDS011;39812;52.430;16.936;2023-05-07T07:20:56;3.47;;;1.60;;
53903;SDS011;39812;52.430;16.936;2023-05-07T07:23:22;2.60;;;1.50;;
53903;SDS011;39812;52.430;16.936;2023-05-07T07:25:48;2.00;;;1.10;;
53903;SDS011;39812;52.430;16.936;2023-05-07T07:28:14;3.10;;;1.77;;
53903;SDS011;39812;52.430;16.936;2023-05-07T07:30:39;1.88;;;1.20;;
53903;SDS011;39812;52.430;16.936;2023-05-07T07:33:05;2.50;;;1.30;;
53903;SDS011;39812;52.430;16.936;2023-05-07T07:35:34;2.75;;;1.48;;
53903;SDS011;39812;52.430;16.936;2023-05-07T07:38:00;3.25;;;1.42;;
53903;SDS011;39812;52.430;16.936;2023-05-07T07:40:26;3.60;;;1.50;;
53903;SDS011;39812;52.430;16.936;2023-05-07T07:42:53;2.47;;;1.40;;
53903;SDS011;39812;52.430;16.936;2023-05-07T07:45:19;2.90;;;1.30;;
53903;SDS011;39812;52.430;16.936;2023-05-07T07:47:45;1.98;;;1.17;;
53903;SDS011;39812;52.430;16.936;2023-05-07T07:50:11;4.18;;;2.00;;
53903;SDS011;39812;52.430;16.936;2023-05-07T07:52:36;4.70;;;1.40;;
53903;SDS011;39812;52.430;16.936;2023-05-07T07:55:02;2.75;;;1.40;;
53903;SDS011;39812;52.430;16.936;2023-05-07T07:57:29;3.20;;;1.27;;
53903;SDS011;39812;52.430;16.936;2023-05-07T07:59:55;1.60;;;1.23;;
53903;SDS011;39812;52.430;16.936;2023-05-07T08:02:20;1.67;;;1.15;;
53903;SDS011;39812;52.430;16.936;2023-05-07T08:04:46;2.15;;;1.42;;
53903;SDS011;39812;52.430;16.936;2023-05-07T08:07:12;2.30;;;1.30;;
53903;SDS011;39812;52.430;16.936;2023-05-07T08:09:38;2.20;;;1.30;;
53903;SDS011;39812;52.430;16.936;2023-05-07T08:12:04;3.03;;;1.48;;
53903;SDS011;39812;52.430;16.936;2023-05-07T08:14:31;4.40;;;1.33;;
53903;SDS011;39812;52.430;16.936;2023-05-07T08:16:57;3.63;;;1.30;;
53903;SDS011;39812;52.430;16.936;2023-05-07T08:19:22;5.13;;;1.60;;
53903;SDS011;39812;52.430;16.936;2023-05-07T08:21:48;2.85;;;1.30;;
53903;SDS011;39812;52.430;16.936;2023-05-07T08:24:14;3.15;;;1.30;;
53903;SDS011;39812;52.430;16.936;2023-05-07T08:26:40;3.72;;;1.83;;
53903;SDS011;39812;52.430;16.936;2023-05-07T08:29:06;2.70;;;1.52;;
53903;SDS011;39812;52.430;16.936;2023-05-07T08:31:32;4.35;;;2.10;;
53903;SDS011;39812;52.430;16.936;2023-05-07T08:33:58;2.70;;;1.50;;
53903;SDS011;39812;52.430;16.936;2023-05-07T08:36:24;2.22;;;1.63;;
53903;SDS011;39812;52.430;16.936;2023-05-07T08:38:50;2.03;;;1.30;;
53903;SDS011;39812;52.430;16.936;2023-05-07T08:41:17;4.10;;;1.65;;
53903;SDS011;39812;52.430;16.936;2023-05-07T08:43:43;2.38;;;1.50;;
53903;SDS011;39812;52.430;16.936;2023-05-07T08:46:13;1.83;;;1.20;;
53903;SDS011;39812;52.430;16.936;2023-05-07T08:48:42;1.92;;;0.93;;
53903;SDS011;39812;52.430;16.936;2023-05-07T08:51:08;4.00;;;1.30;;
53903;SDS011;39812;52.430;16.936;2023-05-07T08:53:38;1.98;;;1.15;;
53903;SDS011;39812;52.430;16.936;2023-05-07T08:56:06;1.98;;;1.35;;
53903;SDS011;39812;52.430;16.936;2023-05-07T08:58:33;2.17;;;1.33;;
53903;SDS011;39812;52.430;16.936;2023-05-07T09:00:59;3.30;;;1.50;;
53903;SDS011;39812;52.430;16.936;2023-05-07T09:03:32;3.08;;;1.65;;
53903;SDS011;39812;52.430;16.936;2023-05-07T09:05:58;3.92;;;1.58;;
53903;SDS011;39812;52.430;16.936;2023-05-07T09:08:27;5.60;;;1.60;;
53903;SDS011;39812;52.430;16.936;2023-05-07T09:10:52;3.17;;;1.55;;
53903;SDS011;39812;52.430;16.936;2023-05-07T09:13:18;2.30;;;1.70;;
53903;SDS011;39812;52.430;16.936;2023-05-07T09:15:44;1.88;;;1.70;;
53903;SDS011;39812;52.430;16.936;2023-05-07T09:18:10;1.83;;;1.30;;
53903;SDS011;39812;52.430;16.936;2023-05-07T09:20:37;5.05;;;1.60;;
53903;SDS011;39812;52.430;16.936;2023-05-07T09:23:03;2.22;;;1.65;;
53903;SDS011;39812;52.430;16.936;2023-05-07T09:25:29;3.63;;;1.52;;
53903;SDS011;39812;52.430;16.936;2023-05-07T09:27:56;2.88;;;1.92;;
53903;SDS011;39812;52.430;16.936;2023-05-07T09:30:21;2.90;;;1.63;;
53903;SDS011;39812;52.430;16.936;2023-05-07T09:32:47;2.35;;;1.55;;
53903;SDS011;39812;52.430;16.936;2023-05-07T09:35:16;1.98;;;1.30;;
53903;SDS011;39812;52.430;16.936;2023-05-07T09:37:42;2.38;;;1.42;;
53903;SDS011;39812;52.430;16.936;2023-05-07T09:40:08;1.88;;;1.27;;
53903;SDS011;39812;52.430;16.936;2023-05-07T09:42:49;1.33;;;1.20;;
53903;SDS011;39812;52.430;16.936;2023-05-07T09:45:22;3.13;;;1.50;;
53903;SDS011;39812;52.430;16.936;2023-05-07T09:47:53;3.38;;;1.70;;
53903;SDS011;39812;52.430;16.936;2023-05-07T09:50:31;2.67;;;1.52;;
53903;SDS011;39812;52.430;16.936;2023-05-07T09:53:01;3.85;;;1.65;;
53903;SDS011;39812;52.430;16.936;2023-05-07T09:55:28;3.05;;;1.50;;
53903;SDS011;39812;52.430;16.936;2023-05-07T09:57:54;2.50;;;1.55;;
53903;SDS011;39812;52.430;16.936;2023-05-07T10:00:21;2.88;;;1.30;;
53903;SDS011;39812;52.430;16.936;2023-05-07T10:02:48;2.35;;;1.70;;
53903;SDS011;39812;52.430;16.936;2023-05-07T10:05:17;2.47;;;1.30;;
53903;SDS011;39812;52.430;16.936;2023-05-07T10:07:43;1.90;;;1.35;;
53903;SDS011;39812;52.430;16.936;2023-05-07T10:10:10;3.47;;;1.38;;
53903;SDS011;39812;52.430;16.936;2023-05-07T10:12:36;2.40;;;1.50;;
53903;SDS011;39812;52.430;16.936;2023-05-07T10:15:07;2.35;;;1.50;;
53903;SDS011;39812;52.430;16.936;2023-05-07T10:17:37;1.95;;;1.17;;
53903;SDS011;39812;52.430;16.936;2023-05-07T10:20:04;4.20;;;1.40;;
53903;SDS011;39812;52.430;16.936;2023-05-07T10:22:32;2.00;;;1.20;;
53903;SDS011;39812;52.430;16.936;2023-05-07T10:25:10;2.30;;;1.60;;
53903;SDS011;39812;52.430;16.936;2023-05-07T10:27:42;4.05;;;1.73;;
53903;SDS011;39812;52.430;16.936;2023-05-07T10:35:20;3.78;;;1.50;;
53903;SDS011;39812;52.430;16.936;2023-05-07T10:37:49;2.60;;;1.70;;
53903;SDS011;39812;52.430;16.936;2023-05-07T10:40:15;2.25;;;1.45;;
53903;SDS011;39812;52.430;16.936;2023-05-07T10:42:59;3.20;;;1.50;;
53903;SDS011;39812;52.430;16.936;2023-05-07T10:45:26;1.38;;;1.10;;
53903;SDS011;39812;52.430;16.936;2023-05-07T10:48:10;3.35;;;1.58;;
53903;SDS011;39812;52.430;16.936;2023-05-07T10:50:38;3.08;;;1.38;;
53903;SDS011;39812;52.430;16.936;2023-05-07T10:55:43;1.85;;;1.30;;
53903;SDS011;39812;52.430;16.936;2023-05-07T10:58:35;2.47;;;1.40;;
53903;SDS011;39812;52.430;16.936;2023-05-07T11:01:02;2.80;;;1.30;;
53903;SDS011;39812;52.430;16.936;2023-05-07T11:03:28;1.80;;;1.02;;
53903;SDS011;39812;52.430;16.936;2023-05-07T11:06:14;2.50;;;1.20;;
53903;SDS011;39812;52.430;16.936;2023-05-07T11:08:53;2.00;;;1.20;;
53903;SDS011;39812;52.430;16.936;2023-05-07T11:14:10;1.50;;;1.00;;
53903;SDS011;39812;52.430;16.936;2023-05-07T11:16:36;2.05;;;1.85;;
53903;SDS011;39812;52.430;16.936;2023-05-07T11:19:03;1.60;;;1.27;;
53903;SDS011;39812;52.430;16.936;2023-05-07T11:23:59;2.95;;;1.20;;
53903;SDS011;39812;52.430;16.936;2023-05-07T11:26:26;1.67;;;0.98;;
53903;SDS011;39812;52.430;16.936;2023-05-07T11:28:53;3.53;;;1.08;;
53903;SDS011;39812;52.430;16.936;2023-05-07T11:31:21;2.45;;;1.20;;
53903;SDS011;39812;52.430;16.936;2023-05-07T11:33:48;1.77;;;1.10;;
53903;SDS011;39812;52.430;16.936;2023-05-07T11:36:14;3.15;;;1.08;;
53903;SDS011;39812;52.430;16.936;2023-05-07T11:38:40;1.67;;;0.95;;
53903;SDS011;39812;52.430;16.936;2023-05-07T11:41:07;2.20;;;1.05;;
53903;SDS011;39812;52.430;16.936;2023-05-07T11:43:33;1.25;;;1.05;;
53903;SDS011;39812;52.430;16.936;2023-05-07T11:46:10;1.90;;;1.08;;
53903;SDS011;39812;52.430;16.936;2023-05-07T11:48:36;1.70;;;1.13;;
53903;SDS011;39812;52.430;16.936;2023-05-07T11:51:06;1.80;;;1.00;;
53903;SDS011;39812;52.430;16.936;2023-05-07T11:53:37;2.22;;;0.90;;
53903;SDS011;39812;52.430;16.936;2023-05-07T11:56:10;1.75;;;1.02;;
53903;SDS011;39812;52.430;16.936;2023-05-07T11:58:41;1.92;;;1.10;;
53903;SDS011;39812;52.430;16.936;2023-05-07T12:01:08;5.05;;;1.15;;
53903;SDS011;39812;52.430;16.936;2023-05-07T12:03:34;4.07;;;1.60;;
53903;SDS011;39812;52.430;16.936;2023-05-07T12:06:02;2.40;;;1.10;;
53903;SDS011;39812;52.430;16.936;2023-05-07T12:08:30;4.30;;;1.52;;
53903;SDS011;39812;52.430;16.936;2023-05-07T12:10:56;2.92;;;1.10;;
53903;SDS011;39812;52.430;16.936;2023-05-07T12:13:22;2.10;;;1.10;;
53903;SDS011;39812;52.430;16.936;2023-05-07T12:15:50;1.98;;;1.23;;
53903;SDS011;39812;52.430;16.936;2023-05-07T12:18:17;2.55;;;1.25;;
53903;SDS011;39812;52.430;16.936;2023-05-07T12:20:43;3.42;;;1.30;;
53903;SDS011;39812;52.430;16.936;2023-05-07T12:23:10;1.90;;;1.20;;
53903;SDS011;39812;52.430;16.936;2023-05-07T12:25:36;1.48;;;1.10;;
53903;SDS011;39812;52.430;16.936;2023-05-07T12:28:08;2.15;;;1.58;;
53903;SDS011;39812;52.430;16.936;2023-05-07T12:30:38;2.00;;;1.23;;
53903;SDS011;39812;52.430;16.936;2023-05-07T12:33:04;2.33;;;1.25;;
53903;SDS011;39812;52.430;16.936;2023-05-07T12:35:31;3.72;;;1.27;;
53903;SDS011;39812;52.430;16.936;2023-05-07T12:38:00;2.85;;;1.30;;
53903;SDS011;39812;52.430;16.936;2023-05-07T12:40:45;3.38;;;1.17;;
53903;SDS011;39812;52.430;16.936;2023-05-07T12:43:24;1.83;;;1.17;;
53903;SDS011;39812;52.430;16.936;2023-05-07T12:45:51;1.48;;;0.98;;
53903;SDS011;39812;52.430;16.936;2023-05-07T12:48:20;1.88;;;1.27;;
53903;SDS011;39812;52.430;16.936;2023-05-07T12:51:04;4.43;;;1.25;;
53903;SDS011;39812;52.430;16.936;2023-05-07T12:53:31;3.60;;;1.40;;
53903;SDS011;39812;52.430;16.936;2023-05-07T12:55:57;1.40;;;0.90;;
53903;SDS011;39812;52.430;16.936;2023-05-07T12:58:32;3.80;;;1.35;;
53903;SDS011;39812;52.430;16.936;2023-05-07T13:01:00;2.00;;;1.38;;
53903;SDS011;39812;52.430;16.936;2023-05-07T13:03:29;6.05;;;1.30;;
53903;SDS011;39812;52.430;16.936;2023-05-07T13:06:01;1.88;;;1.25;;
53903;SDS011;39812;52.430;16.936;2023-05-07T13:08:29;2.70;;;1.13;;
53903;SDS011;39812;52.430;16.936;2023-05-07T13:10:57;3.28;;;1.10;;
53903;SDS011;39812;52.430;16.936;2023-05-07T13:13:25;1.92;;;1.27;;
53903;SDS011;39812;52.430;16.936;2023-05-07T13:15:50;1.80;;;1.17;;
53903;SDS011;39812;52.430;16.936;2023-05-07T13:18:16;3.22;;;1.45;;
53903;SDS011;39812;52.430;16.936;2023-05-07T13:20:42;3.83;;;1.10;;
53903;SDS011;39812;52.430;16.936;2023-05-07T13:23:08;1.40;;;1.10;;
53903;SDS011;39812;52.430;16.936;2023-05-07T13:25:33;2.17;;;1.50;;
53903;SDS011;39812;52.430;16.936;2023-05-07T13:27:59;2.10;;;1.50;;
53903;SDS011;39812;52.430;16.936;2023-05-07T13:30:25;4.28;;;1.30;;
53903;SDS011;39812;52.430;16.936;2023-05-07T13:32:51;2.40;;;1.45;;
53903;SDS011;39812;52.430;16.936;2023-05-07T13:35:18;3.40;;;1.33;;
53903;SDS011;39812;52.430;16.936;2023-05-07T13:37:44;2.20;;;1.40;;
53903;SDS011;39812;52.430;16.936;2023-05-07T13:40:10;2.00;;;1.50;;
53903;SDS011;39812;52.430;16.936;2023-05-07T13:42:36;1.55;;;1.08;;
53903;SDS011;39812;52.430;16.936;2023-05-07T13:45:01;2.63;;;1.20;;
53903;SDS011;39812;52.430;16.936;2023-05-07T13:47:30;2.75;;;1.23;;
53903;SDS011;39812;52.430;16.936;2023-05-07T13:49:55;2.80;;;0.93;;
53903;SDS011;39812;52.430;16.936;2023-05-07T13:52:21;3.35;;;1.10;;
53903;SDS011;39812;52.430;16.936;2023-05-07T13:54:46;4.25;;;1.40;;
53903;SDS011;39812;52.430;16.936;2023-05-07T13:57:12;2.85;;;1.27;;
53903;SDS011;39812;52.430;16.936;2023-05-07T13:59:38;2.05;;;1.20;;
53903;SDS011;39812;52.430;16.936;2023-05-07T14:02:03;1.95;;;1.05;;
53903;SDS011;39812;52.430;16.936;2023-05-07T14:04:30;2.45;;;1.50;;
53903;SDS011;39812;52.430;16.936;2023-05-07T14:06:56;1.80;;;1.02;;
53903;SDS011;39812;52.430;16.936;2023-05-07T14:09:21;4.38;;;1.30;;
53903;SDS011;39812;52.430;16.936;2023-05-07T14:11:47;2.58;;;1.30;;
53903;SDS011;39812;52.430;16.936;2023-05-07T14:14:16;2.97;;;1.42;;
53903;SDS011;39812;52.430;16.936;2023-05-07T14:16:45;2.60;;;1.48;;
53903;SDS011;39812;52.430;16.936;2023-05-07T14:19:11;2.17;;;1.42;;
53903;SDS011;39812;52.430;16.936;2023-05-07T14:21:37;2.10;;;1.27;;
53903;SDS011;39812;52.430;16.936;2023-05-07T14:24:02;3.58;;;1.30;;
53903;SDS011;39812;52.430;16.936;2023-05-07T14:26:28;4.20;;;1.55;;
53903;SDS011;39812;52.430;16.936;2023-05-07T14:28:55;2.30;;;1.30;;
53903;SDS011;39812;52.430;16.936;2023-05-07T14:31:23;2.28;;;1.60;;
53903;SDS011;39812;52.430;16.936;2023-05-07T14:33:49;2.10;;;1.42;;
53903;SDS011;39812;52.430;16.936;2023-05-07T14:36:18;4.13;;;1.50;;
53903;SDS011;39812;52.430;16.936;2023-05-07T14:38:48;6.18;;;1.50;;
53903;SDS011;39812;52.430;16.936;2023-05-07T14:41:13;3.53;;;1.23;;